Time;durP1;ratioP1;P1;durP2;ratioP2;P2;SDS_P1;SDS_P2;PMS_P1;PMS_P2;Temp;Humidity;BMP_temperature;BMP_pressure;BME280_temperature;BME280_humidity;BME280_pressure;Samples;Min_cycle;Max_cycle;Signal;HPM_P1;HPM_P2
2020/12/28 00:00:12;;;;;;;;;;;26.00;40.50;;;;;;5073972;28;19912;-64
2020/12/28 00:02:37;;;;;;;;;;;26.30;42.40;;;;;;5077022;28;20395;-65
2020/12/28 00:05:10;;;;;;;;;;;26.40;43.60;;;;;;5076985;28;20374;-62
2020/12/28 00:07:35;;;;;;;;;;;26.50;44.10;;;;;;5089255;28;20006;-66
2020/12/28 00:10:01;;;;;;;;;;;26.50;44.20;;;;;;5074293;28;20384;-65
2020/12/28 00:12:28;;;;;;;;;;;26.60;44.40;;;;;;5075565;28;19915;-65
2020/12/28 00:14:53;;;;;;;;;;;26.50;44.30;;;;;;5093881;28;19908;-67
2020/12/28 00:17:18;;;;;;;;;;;26.50;44.40;;;;;;5093064;28;20266;-63
2020/12/28 00:19:44;;;;;;;;;;;26.60;44.40;;;;;;5074880;28;19923;-64
2020/12/28 00:22:09;;;;;;;;;;;26.60;44.20;;;;;;5091742;28;19927;-63
2020/12/28 00:24:35;;;;;;;;;;;26.50;44.20;;;;;;5073805;28;20350;-66
2020/12/28 00:27:00;;;;;;;;;;;26.50;44.20;;;;;;5073359;28;19920;-66
2020/12/28 00:29:26;;;;;;;;;;;26.50;44.10;;;;;;5074325;28;19912;-63
2020/12/28 00:31:51;;;;;;;;;;;26.60;44.00;;;;;;5055441;28;20299;-64
2020/12/28 00:34:17;;;;;;;;;;;26.50;44.20;;;;;;5087189;28;19923;-64
2020/12/28 00:36:42;;;;;;;;;;;26.40;44.10;;;;;;5076292;28;19921;-65
2020/12/28 00:39:08;;;;;;;;;;;26.40;44.10;;;;;;5093937;28;19963;-65
2020/12/28 00:41:33;;;;;;;;;;;26.30;44.10;;;;;;5093405;28;19920;-65
2020/12/28 00:43:59;;;;;;;;;;;26.30;44.60;;;;;;5089539;28;19912;-65
2020/12/28 00:46:24;;;;;;;;;;;26.30;43.90;;;;;;5087572;28;19916;-65
2020/12/28 00:48:49;;;;;;;;;;;26.30;43.80;;;;;;5086637;28;19994;-65
2020/12/28 00:51:15;;;;;;;;;;;26.30;43.80;;;;;;5093684;28;20407;-65
2020/12/28 00:53:41;;;;;;;;;;;26.30;43.70;;;;;;5093709;28;19915;-65
2020/12/28 00:56:06;;;;;;;;;;;26.30;43.70;;;;;;5093255;28;20339;-65
2020/12/28 00:58:35;;;;;;;;;;;26.20;43.60;;;;;;5082608;28;20057;-65
2020/12/28 01:01:01;;;;;;;;;;;26.20;43.60;;;;;;5093507;28;19908;-65
2020/12/28 01:03:26;;;;;;;;;;;26.30;43.50;;;;;;5087743;28;19924;-65
2020/12/28 01:05:52;;;;;;;;;;;26.30;44.00;;;;;;5091393;28;19963;-65
2020/12/28 01:08:17;;;;;;;;;;;26.20;43.40;;;;;;5089867;28;20685;-65
2020/12/28 01:10:43;;;;;;;;;;;26.20;43.30;;;;;;5072889;28;20011;-65
2020/12/28 01:13:09;;;;;;;;;;;26.20;43.30;;;;;;5075581;28;19923;-65
2020/12/28 01:15:34;;;;;;;;;;;26.10;43.10;;;;;;5093338;28;19912;-65
2020/12/28 01:17:59;;;;;;;;;;;26.20;43.20;;;;;;5086440;28;19913;-65
2020/12/28 01:20:25;;;;;;;;;;;26.10;43.00;;;;;;5073159;28;19950;-65
2020/12/28 01:22:50;;;;;;;;;;;26.20;43.00;;;;;;5072806;28;19916;-65
2020/12/28 01:25:16;;;;;;;;;;;26.20;43.00;;;;;;5073132;28;20420;-65
2020/12/28 01:27:41;;;;;;;;;;;26.10;42.90;;;;;;5083076;28;19920;-65
2020/12/28 01:30:07;;;;;;;;;;;26.10;42.80;;;;;;5084653;28;19912;-65
2020/12/28 01:32:32;;;;;;;;;;;26.10;42.80;;;;;;5075401;28;19920;-65
2020/12/28 01:34:58;;;;;;;;;;;26.10;42.70;;;;;;5078174;28;19923;-65
2020/12/28 01:37:24;;;;;;;;;;;26.10;42.80;;;;;;5073962;28;19995;-65
2020/12/28 01:39:49;;;;;;;;;;;26.10;42.80;;;;;;5093181;28;20386;-65
2020/12/28 01:42:14;;;;;;;;;;;26.10;42.70;;;;;;5079240;28;20397;-65
2020/12/28 01:44:40;;;;;;;;;;;26.10;42.70;;;;;;5095409;28;20010;-65
2020/12/28 01:47:05;;;;;;;;;;;26.00;42.60;;;;;;5097038;28;19915;-65
2020/12/28 01:49:31;;;;;;;;;;;26.10;42.50;;;;;;5077451;28;20371;-65
2020/12/28 01:51:56;;;;;;;;;;;26.10;42.50;;;;;;5076672;28;19909;-66
2020/12/28 01:54:22;;;;;;;;;;;26.00;42.50;;;;;;5088043;28;19935;-65
2020/12/28 01:56:47;;;;;;;;;;;26.00;42.40;;;;;;5076399;28;19908;-65
2020/12/28 01:59:14;;;;;;;;;;;26.00;42.40;;;;;;5092714;28;19912;-65
2020/12/28 02:01:40;;;;;;;;;;;26.00;42.40;;;;;;5081306;28;19924;-64
2020/12/28 02:04:06;;;;;;;;;;;26.00;42.40;;;;;;5083754;28;19919;-65
2020/12/28 02:06:32;;;;;;;;;;;26.00;42.30;;;;;;5076679;28;19943;-65
2020/12/28 02:08:57;;;;;;;;;;;26.00;42.30;;;;;;5076210;28;19956;-65
2020/12/28 02:11:23;;;;;;;;;;;25.90;42.20;;;;;;5076076;28;19954;-65
2020/12/28 02:13:48;;;;;;;;;;;25.90;42.20;;;;;;5076786;28;19913;-65
2020/12/28 02:16:14;;;;;;;;;;;25.90;42.10;;;;;;5093508;28;19916;-65
2020/12/28 02:18:39;;;;;;;;;;;25.90;42.10;;;;;;5082943;28;19916;-65
2020/12/28 02:21:04;;;;;;;;;;;25.90;42.10;;;;;;5088012;28;19952;-65
2020/12/28 02:23:30;;;;;;;;;;;25.90;42.10;;;;;;5085634;28;19917;-65
2020/12/28 02:25:55;;;;;;;;;;;25.90;42.70;;;;;;5075761;28;19999;-65
2020/12/28 02:28:21;;;;;;;;;;;25.90;42.10;;;;;;5076869;28;19921;-65
2020/12/28 02:30:46;;;;;;;;;;;25.90;42.00;;;;;;5077861;28;20370;-64
2020/12/28 02:33:12;;;;;;;;;;;25.90;42.00;;;;;;5084504;28;19916;-65
2020/12/28 02:35:37;;;;;;;;;;;25.90;42.00;;;;;;5086955;28;19912;-65
2020/12/28 02:38:03;;;;;;;;;;;25.90;41.90;;;;;;5083479;28;20353;-65
2020/12/28 02:40:28;;;;;;;;;;;25.90;41.90;;;;;;5094032;28;19912;-65
2020/12/28 02:42:53;;;;;;;;;;;25.90;41.90;;;;;;5090220;28;19924;-65
2020/12/28 02:45:19;;;;;;;;;;;25.90;41.90;;;;;;5075840;28;19908;-65
2020/12/28 02:47:44;;;;;;;;;;;25.90;41.80;;;;;;5074526;28;19920;-65
2020/12/28 02:50:10;;;;;;;;;;;25.80;41.80;;;;;;5075596;28;19920;-65
2020/12/28 02:52:35;;;;;;;;;;;25.80;41.90;;;;;;5075710;28;20286;-65
2020/12/28 02:55:01;;;;;;;;;;;25.80;41.70;;;;;;5075017;28;19954;-65
2020/12/28 02:57:26;;;;;;;;;;;25.80;41.70;;;;;;5076956;28;19916;-65
2020/12/28 02:59:52;;;;;;;;;;;25.80;41.70;;;;;;5091267;28;20401;-65
2020/12/28 03:02:17;;;;;;;;;;;25.80;41.70;;;;;;5083717;28;19920;-65
2020/12/28 03:04:43;;;;;;;;;;;25.80;41.60;;;;;;5089604;28;19912;-65
2020/12/28 03:07:08;;;;;;;;;;;25.80;41.50;;;;;;5093746;28;19912;-65
2020/12/28 03:09:33;;;;;;;;;;;25.80;41.50;;;;;;5095370;28;19908;-64
2020/12/28 03:11:59;;;;;;;;;;;25.80;41.50;;;;;;5095269;28;20014;-65
2020/12/28 03:14:24;;;;;;;;;;;25.80;41.50;;;;;;5083854;28;19969;-65
2020/12/28 03:16:50;;;;;;;;;;;25.80;41.50;;;;;;5095462;28;20340;-65
2020/12/28 03:19:15;;;;;;;;;;;25.80;41.50;;;;;;5077938;28;19923;-65
2020/12/28 03:21:41;;;;;;;;;;;25.80;41.50;;;;;;5074880;28;19927;-65
2020/12/28 03:24:06;;;;;;;;;;;25.80;41.40;;;;;;5075131;28;20347;-65
2020/12/28 03:26:32;;;;;;;;;;;25.80;41.40;;;;;;5081181;28;19937;-65
2020/12/28 03:28:57;;;;;;;;;;;25.80;41.30;;;;;;5085965;28;19913;-65
2020/12/28 03:31:25;;;;;;;;;;;25.80;41.40;;;;;;5081994;28;20049;-65
2020/12/28 03:33:50;;;;;;;;;;;25.80;41.40;;;;;;5088933;28;19920;-65
2020/12/28 03:36:16;;;;;;;;;;;25.80;41.40;;;;;;5078725;28;19917;-65
2020/12/28 03:38:41;;;;;;;;;;;25.70;41.20;;;;;;5074304;28;19912;-65
2020/12/28 03:41:10;;;;;;;;;;;25.70;41.20;;;;;;5074617;28;19908;-65
2020/12/28 03:43:35;;;;;;;;;;;25.70;41.20;;;;;;5077046;28;19923;-65
2020/12/28 03:46:01;;;;;;;;;;;25.70;41.20;;;;;;5074552;28;20329;-65
2020/12/28 03:48:26;;;;;;;;;;;25.70;41.10;;;;;;5082404;28;19920;-65
2020/12/28 03:50:52;;;;;;;;;;;25.70;41.10;;;;;;5074256;28;19910;-65
2020/12/28 03:53:17;;;;;;;;;;;25.70;41.10;;;;;;5082834;28;19919;-66
2020/12/28 03:55:43;;;;;;;;;;;25.70;41.20;;;;;;5081469;28;20420;-65
2020/12/28 03:58:08;;;;;;;;;;;25.70;41.10;;;;;;5094192;28;19915;-65
2020/12/28 04:00:33;;;;;;;;;;;25.70;41.10;;;;;;5094632;28;19908;-65
2020/12/28 04:02:59;;;;;;;;;;;25.70;41.10;;;;;;5085622;28;20401;-65
2020/12/28 04:05:24;;;;;;;;;;;25.70;41.00;;;;;;5080018;28;19970;-65
2020/12/28 04:07:50;;;;;;;;;;;25.70;41.10;;;;;;5073575;28;20278;-65
2020/12/28 04:10:15;;;;;;;;;;;25.70;41.00;;;;;;5092154;28;19919;-65
2020/12/28 04:12:41;;;;;;;;;;;25.60;41.00;;;;;;5077597;28;19912;-65
2020/12/28 04:15:06;;;;;;;;;;;25.60;41.10;;;;;;5094066;28;19912;-65
2020/12/28 04:17:32;;;;;;;;;;;25.70;41.00;;;;;;5094067;28;19912;-65
2020/12/28 04:19:58;;;;;;;;;;;25.70;41.00;;;;;;5094300;28;19908;-65
2020/12/28 04:22:23;;;;;;;;;;;25.70;40.90;;;;;;5093393;28;19927;-65
2020/12/28 04:24:49;;;;;;;;;;;25.60;40.90;;;;;;5090578;28;20325;-65
2020/12/28 04:27:14;;;;;;;;;;;25.60;40.90;;;;;;5073696;28;19925;-65
2020/12/28 04:29:39;;;;;;;;;;;25.60;40.90;;;;;;5079921;28;19912;-65
2020/12/28 04:32:05;;;;;;;;;;;25.60;40.90;;;;;;5073806;28;19916;-65
2020/12/28 04:34:30;;;;;;;;;;;25.60;40.90;;;;;;5078379;28;19909;-65
2020/12/28 04:36:56;;;;;;;;;;;25.60;40.90;;;;;;5073628;28;19916;-66
2020/12/28 04:39:21;;;;;;;;;;;25.50;40.80;;;;;;5090123;28;19916;-65
2020/12/28 04:41:47;;;;;;;;;;;25.50;40.90;;;;;;5093817;28;19930;-65
2020/12/28 04:44:12;;;;;;;;;;;25.50;40.90;;;;;;5076780;28;19958;-65
2020/12/28 04:46:38;;;;;;;;;;;25.50;40.80;;;;;;5088924;28;19916;-65
2020/12/28 04:49:03;;;;;;;;;;;25.50;40.80;;;;;;5088246;28;20365;-65
2020/12/28 04:51:29;;;;;;;;;;;25.50;40.80;;;;;;5077279;28;20367;-65
2020/12/28 04:53:54;;;;;;;;;;;25.50;40.80;;;;;;5093456;28;19950;-64
2020/12/28 04:56:20;;;;;;;;;;;25.50;40.70;;;;;;5093599;28;19915;-64
2020/12/28 04:58:45;;;;;;;;;;;25.50;40.80;;;;;;5075714;28;20297;-65
2020/12/28 05:01:11;;;;;;;;;;;25.50;40.70;;;;;;5073260;28;19920;-65
2020/12/28 05:03:36;;;;;;;;;;;25.50;40.80;;;;;;5082832;28;19934;-64
2020/12/28 05:06:02;;;;;;;;;;;25.50;40.70;;;;;;5091611;28;19919;-64
2020/12/28 05:08:27;;;;;;;;;;;25.50;40.70;;;;;;5087951;28;20576;-64
2020/12/28 05:10:52;;;;;;;;;;;25.50;40.70;;;;;;5072898;28;19970;-64
2020/12/28 05:13:18;;;;;;;;;;;25.50;40.70;;;;;;5088880;28;19919;-65
2020/12/28 05:15:47;;;;;;;;;;;25.50;40.70;;;;;;5073199;28;20328;-65
2020/12/28 05:18:13;;;;;;;;;;;25.50;40.70;;;;;;5080971;28;19914;-65
2020/12/28 05:20:41;;;;;;;;;;;25.50;40.60;;;;;;5093057;28;19916;-65
2020/12/28 05:23:06;;;;;;;;;;;25.50;40.60;;;;;;5085664;28;19920;-65
2020/12/28 05:25:32;;;;;;;;;;;25.50;40.60;;;;;;5075464;28;19966;-65
2020/12/28 05:27:57;;;;;;;;;;;25.50;40.60;;;;;;5091752;28;19973;-65
2020/12/28 05:30:23;;;;;;;;;;;25.50;40.70;;;;;;5092052;28;19908;-65
2020/12/28 05:32:49;;;;;;;;;;;25.50;40.60;;;;;;5079649;28;20003;-65
2020/12/28 05:35:15;;;;;;;;;;;25.50;40.60;;;;;;5084338;28;20403;-65
2020/12/28 05:37:41;;;;;;;;;;;25.50;40.50;;;;;;5072951;28;20263;-65
2020/12/28 05:40:07;;;;;;;;;;;25.50;41.10;;;;;;5074491;28;19913;-65
2020/12/28 05:42:33;;;;;;;;;;;25.40;40.50;;;;;;5092211;28;19917;-65
2020/12/28 05:45:05;;;;;;;;;;;25.40;40.40;;;;;;5082647;28;19916;-64
2020/12/28 05:47:30;;;;;;;;;;;25.40;40.40;;;;;;5090479;28;19948;-64
2020/12/28 05:49:56;;;;;;;;;;;25.40;40.40;;;;;;5085557;28;19993;-65
2020/12/28 05:52:21;;;;;;;;;;;25.40;40.40;;;;;;5088552;28;19908;-64
2020/12/28 05:54:47;;;;;;;;;;;25.40;40.40;;;;;;5082743;28;19959;-66
2020/12/28 05:57:12;;;;;;;;;;;25.40;40.40;;;;;;5067799;28;19915;-66
2020/12/28 05:59:38;;;;;;;;;;;25.40;40.40;;;;;;5068798;28;20009;-65
2020/12/28 06:02:03;;;;;;;;;;;25.40;40.30;;;;;;5078943;28;19924;-65
2020/12/28 06:04:29;;;;;;;;;;;25.40;40.30;;;;;;5073363;28;19924;-65
2020/12/28 06:07:00;;;;;;;;;;;25.40;40.30;;;;;;5072324;28;19912;-65
2020/12/28 06:09:26;;;;;;;;;;;25.40;40.30;;;;;;5059767;28;19965;-65
2020/12/28 06:12:01;;;;;;;;;;;25.40;40.30;;;;;;5052569;28;20320;-65
2020/12/28 06:14:31;;;;;;;;;;;25.40;40.20;;;;;;5089282;28;19938;-65
2020/12/28 06:17:02;;;;;;;;;;;25.40;40.20;;;;;;5075289;28;19965;-65
2020/12/28 06:19:27;;;;;;;;;;;25.40;40.30;;;;;;5075270;28;19912;-65
2020/12/28 06:21:53;;;;;;;;;;;25.40;40.30;;;;;;5082234;28;20385;-65
2020/12/28 06:24:31;;;;;;;;;;;25.40;40.30;;;;;;5092350;28;19915;-65
2020/12/28 06:27:00;;;;;;;;;;;25.40;40.30;;;;;;5092215;28;20343;-65
2020/12/28 06:29:26;;;;;;;;;;;25.40;40.20;;;;;;5074289;28;20007;-65
2020/12/28 06:31:51;;;;;;;;;;;25.40;40.30;;;;;;5079760;28;19952;-65
2020/12/28 06:34:18;;;;;;;;;;;25.40;40.30;;;;;;5075902;28;19909;-65
2020/12/28 06:36:43;;;;;;;;;;;25.40;40.30;;;;;;5075516;28;19912;-66
2020/12/28 06:39:09;;;;;;;;;;;25.40;40.30;;;;;;5075998;28;19909;-65
2020/12/28 06:41:35;;;;;;;;;;;25.40;40.20;;;;;;5075850;28;19963;-65
2020/12/28 06:44:01;;;;;;;;;;;25.40;40.20;;;;;;5075555;28;19908;-65
2020/12/28 06:46:26;;;;;;;;;;;25.40;40.20;;;;;;5077287;28;19909;-65
2020/12/28 06:48:52;;;;;;;;;;;25.40;40.20;;;;;;5096046;28;19908;-65
2020/12/28 06:51:17;;;;;;;;;;;25.40;40.20;;;;;;5095746;28;20281;-65
2020/12/28 06:53:43;;;;;;;;;;;25.40;40.20;;;;;;5076004;28;19960;-65
2020/12/28 06:56:09;;;;;;;;;;;25.40;40.20;;;;;;5081109;28;20278;-65
2020/12/28 06:58:34;;;;;;;;;;;25.40;40.20;;;;;;5084027;28;19919;-65
2020/12/28 07:01:08;;;;;;;;;;;25.40;40.20;;;;;;5082850;28;19923;-65
2020/12/28 07:03:34;;;;;;;;;;;25.40;40.20;;;;;;5083769;28;19920;-65
2020/12/28 07:05:59;;;;;;;;;;;25.30;40.10;;;;;;5095577;28;19985;-65
2020/12/28 07:08:25;;;;;;;;;;;25.40;40.10;;;;;;5088302;28;19926;-65
2020/12/28 07:11:00;;;;;;;;;;;25.30;40.10;;;;;;5081913;28;19939;-65
2020/12/28 07:13:26;;;;;;;;;;;25.40;40.10;;;;;;5084773;28;19961;-65
2020/12/28 07:15:59;;;;;;;;;;;25.40;40.10;;;;;;5090852;28;19912;-65
2020/12/28 07:18:24;;;;;;;;;;;25.30;40.00;;;;;;5079212;28;20278;-65
2020/12/28 07:20:56;;;;;;;;;;;25.30;40.00;;;;;;5095240;28;19914;-64
2020/12/28 07:23:22;;;;;;;;;;;25.30;40.10;;;;;;5095260;28;20006;-66
2020/12/28 07:25:47;;;;;;;;;;;25.30;40.00;;;;;;5075181;28;19971;-65
2020/12/28 07:28:13;;;;;;;;;;;25.30;40.00;;;;;;5074929;28;19960;-66
2020/12/28 07:30:38;;;;;;;;;;;25.30;40.00;;;;;;5078192;28;19912;-66
2020/12/28 07:33:04;;;;;;;;;;;25.30;40.00;;;;;;5095121;28;20290;-65
2020/12/28 07:35:29;;;;;;;;;;;25.30;40.00;;;;;;5076973;28;19912;-66
2020/12/28 07:37:55;;;;;;;;;;;25.30;40.00;;;;;;5078494;28;19950;-65
2020/12/28 07:40:20;;;;;;;;;;;25.30;40.00;;;;;;5080007;28;19916;-66
2020/12/28 07:42:46;;;;;;;;;;;25.30;40.00;;;;;;5085813;28;19924;-65
2020/12/28 07:45:11;;;;;;;;;;;25.30;40.00;;;;;;5094869;28;19912;-65
2020/12/28 07:47:46;;;;;;;;;;;25.30;40.00;;;;;;5091033;28;19920;-65
2020/12/28 07:50:12;;;;;;;;;;;25.30;40.00;;;;;;5081617;28;19916;-66
2020/12/28 07:52:58;;;;;;;;;;;25.30;40.00;;;;;;5054300;28;19909;-65
2020/12/28 07:55:24;;;;;;;;;;;25.30;40.00;;;;;;5054015;28;19909;-65
2020/12/28 07:57:49;;;;;;;;;;;25.30;40.00;;;;;;5088596;28;20264;-65
2020/12/28 08:00:16;;;;;;;;;;;25.30;40.00;;;;;;5083375;28;19923;-65
2020/12/28 08:02:50;;;;;;;;;;;25.30;39.90;;;;;;5094257;28;19963;-66
2020/12/28 08:05:17;;;;;;;;;;;25.30;40.00;;;;;;5078114;28;19987;-66
2020/12/28 08:07:42;;;;;;;;;;;25.30;40.00;;;;;;5074277;28;19908;-65
2020/12/28 08:10:08;;;;;;;;;;;25.30;40.00;;;;;;5089218;28;19912;-64
2020/12/28 08:12:34;;;;;;;;;;;25.30;39.90;;;;;;5076362;28;20370;-65
2020/12/28 08:14:59;;;;;;;;;;;25.30;39.90;;;;;;5086397;28;19920;-65
2020/12/28 08:17:25;;;;;;;;;;;25.30;39.90;;;;;;5077582;28;19984;-65
2020/12/28 08:19:51;;;;;;;;;;;25.30;39.90;;;;;;5074948;28;19920;-64
2020/12/28 08:22:17;;;;;;;;;;;25.30;39.90;;;;;;5085645;28;20647;-64
2020/12/28 08:24:43;;;;;;;;;;;25.30;39.90;;;;;;5094153;28;19908;-64
2020/12/28 08:27:08;;;;;;;;;;;25.30;39.90;;;;;;5092329;28;19920;-65
2020/12/28 08:29:34;;;;;;;;;;;25.30;39.90;;;;;;5084278;28;19919;-65
2020/12/28 08:31:59;;;;;;;;;;;25.20;39.80;;;;;;5093626;28;20028;-65
2020/12/28 08:34:27;;;;;;;;;;;25.30;39.90;;;;;;5081765;28;19922;-64
2020/12/28 08:36:53;;;;;;;;;;;25.30;39.80;;;;;;5093450;28;20266;-65
2020/12/28 08:39:19;;;;;;;;;;;25.30;39.90;;;;;;5079761;28;19912;-65
2020/12/28 08:42:01;;;;;;;;;;;25.20;39.80;;;;;;5074491;28;19923;-65
2020/12/28 08:44:30;;;;;;;;;;;25.30;39.90;;;;;;5077583;28;19950;-65
2020/12/28 08:46:55;;;;;;;;;;;25.30;39.90;;;;;;5073030;28;20337;-65
2020/12/28 08:49:27;;;;;;;;;;;25.20;39.80;;;;;;5091960;28;20405;-65
2020/12/28 08:51:53;;;;;;;;;;;25.20;39.80;;;;;;5093505;28;19912;-65
2020/12/28 08:54:25;;;;;;;;;;;25.20;39.80;;;;;;5075534;28;19934;-65
2020/12/28 08:56:50;;;;;;;;;;;25.20;39.80;;;;;;5088183;28;19912;-65
2020/12/28 08:59:15;;;;;;;;;;;25.20;39.80;;;;;;5076336;28;19995;-65
2020/12/28 09:01:43;;;;;;;;;;;25.20;39.80;;;;;;5076375;28;19928;-65
2020/12/28 09:04:08;;;;;;;;;;;25.20;39.80;;;;;;5086111;28;19912;-65
2020/12/28 09:06:34;;;;;;;;;;;25.20;39.80;;;;;;5093047;28;19908;-64
2020/12/28 09:08:59;;;;;;;;;;;25.20;39.80;;;;;;5090581;28;19912;-65
2020/12/28 09:11:25;;;;;;;;;;;25.20;39.80;;;;;;5077905;28;19999;-65
2020/12/28 09:13:50;;;;;;;;;;;25.30;39.90;;;;;;5093081;28;19908;-65
2020/12/28 09:16:16;;;;;;;;;;;25.20;39.70;;;;;;5081141;28;19938;-65
2020/12/28 09:18:41;;;;;;;;;;;25.30;39.80;;;;;;5076373;28;20286;-65
2020/12/28 09:21:07;;;;;;;;;;;25.30;39.80;;;;;;5073153;28;19953;-65
2020/12/28 09:23:32;;;;;;;;;;;25.30;39.80;;;;;;5072072;28;19925;-65
2020/12/28 09:25:59;;;;;;;;;;;25.30;39.80;;;;;;5072680;28;19912;-65
2020/12/28 09:28:25;;;;;;;;;;;25.30;39.80;;;;;;5072454;28;20510;-65
2020/12/28 09:30:50;;;;;;;;;;;25.30;39.80;;;;;;5084822;28;19952;-65
2020/12/28 09:33:15;;;;;;;;;;;25.20;39.70;;;;;;5086750;28;19912;-66
2020/12/28 09:35:41;;;;;;;;;;;25.30;39.80;;;;;;5075502;28;19913;-65
2020/12/28 09:38:06;;;;;;;;;;;25.30;39.80;;;;;;5065094;28;20359;-65
2020/12/28 09:40:32;;;;;;;;;;;25.30;39.80;;;;;;5067074;28;19915;-65
2020/12/28 09:42:58;;;;;;;;;;;25.30;39.80;;;;;;5085975;28;19920;-65
2020/12/28 09:45:36;;;;;;;;;;;25.20;39.80;;;;;;5091225;28;19965;-65
2020/12/28 09:48:05;;;;;;;;;;;25.20;39.80;;;;;;5086064;28;19913;-65
2020/12/28 09:50:30;;;;;;;;;;;25.20;39.80;;;;;;5072522;28;19915;-63
2020/12/28 09:52:56;;;;;;;;;;;25.20;39.80;;;;;;5077996;28;19913;-63
2020/12/28 09:55:21;;;;;;;;;;;25.30;39.80;;;;;;5090329;28;19909;-63
2020/12/28 09:57:48;;;;;;;;;;;25.30;39.80;;;;;;5077054;28;19916;-63
2020/12/28 10:00:13;;;;;;;;;;;25.30;39.90;;;;;;5083555;28;20366;-63
2020/12/28 10:02:40;;;;;;;;;;;25.30;38.50;;;;;;5072648;28;19966;-62
2020/12/28 10:05:09;;;;;;;;;;;25.20;34.20;;;;;;5090453;28;19958;-56
2020/12/28 10:07:35;;;;;;;;;;;24.00;31.50;;;;;;5085105;28;19916;-60
2020/12/28 10:10:01;;;;;;;;;;;23.80;34.80;;;;;;5094926;28;19912;-61
2020/12/28 10:12:27;;;;;;;;;;;24.20;34.90;;;;;;5096193;28;20320;-65
2020/12/28 10:14:52;;;;;;;;;;;24.50;34.80;;;;;;5095478;28;19916;-58
2020/12/28 10:17:18;;;;;;;;;;;24.80;34.20;;;;;;5096287;28;19935;-67
2020/12/28 10:19:43;;;;;;;;;;;25.00;33.80;;;;;;5096599;28;19951;-68
2020/12/28 10:22:09;;;;;;;;;;;25.20;34.00;;;;;;5095208;28;20290;-68
2020/12/28 10:24:34;;;;;;;;;;;25.30;34.50;;;;;;5088897;28;19938;-68
2020/12/28 10:27:00;;;;;;;;;;;25.40;34.80;;;;;;5096121;28;19920;-71
2020/12/28 10:29:25;;;;;;;;;;;25.50;35.10;;;;;;5077703;28;19919;-77
2020/12/28 10:31:54;;;;;;;;;;;25.50;35.50;;;;;;5088898;28;20418;-68
2020/12/28 10:34:19;;;;;;;;;;;25.60;35.80;;;;;;5092724;28;19962;-71
2020/12/28 10:36:45;;;;;;;;;;;25.60;36.00;;;;;;5082237;28;19920;-78
2020/12/28 10:39:10;;;;;;;;;;;25.70;36.60;;;;;;5076629;28;19936;-77
2020/12/28 10:41:36;;;;;;;;;;;25.70;36.60;;;;;;5087994;28;19911;-74
2020/12/28 10:44:02;;;;;;;;;;;25.70;36.90;;;;;;5095378;28;19912;-77
2020/12/28 10:46:27;;;;;;;;;;;25.70;37.20;;;;;;5085706;28;20264;-72
2020/12/28 10:48:52;;;;;;;;;;;25.70;37.20;;;;;;5077808;28;19919;-68
2020/12/28 10:51:18;;;;;;;;;;;25.60;37.60;;;;;;5077890;28;19951;-73
2020/12/28 10:53:43;;;;;;;;;;;25.60;37.80;;;;;;5091888;28;19918;-78
2020/12/28 10:56:09;;;;;;;;;;;25.70;37.80;;;;;;5095473;28;19994;-76
2020/12/28 10:58:34;;;;;;;;;;;25.70;38.10;;;;;;5084027;28;19920;-78
2020/12/28 11:01:00;;;;;;;;;;;25.40;38.20;;;;;;5084264;28;20007;-74
2020/12/28 11:03:25;;;;;;;;;;;25.50;38.50;;;;;;5086812;28;19921;-77
2020/12/28 11:05:51;;;;;;;;;;;25.50;38.50;;;;;;5082407;28;19919;-74
2020/12/28 11:08:16;;;;;;;;;;;25.30;38.80;;;;;;5080522;28;20327;-76
2020/12/28 11:10:42;;;;;;;;;;;25.30;38.80;;;;;;5095290;28;19915;-72
2020/12/28 11:13:07;;;;;;;;;;;25.50;38.70;;;;;;5087886;28;19934;-77
2020/12/28 11:15:33;;;;;;;;;;;25.50;38.60;;;;;;5086133;28;20250;-64
2020/12/28 11:17:59;;;;;;;;;;;25.50;38.70;;;;;;5088082;28;19913;-63
2020/12/28 11:20:24;;;;;;;;;;;25.40;38.60;;;;;;5095305;28;19908;-72
2020/12/28 11:22:50;;;;;;;;;;;25.50;38.40;;;;;;5094976;28;19985;-72
2020/12/28 11:25:18;;;;;;;;;;;25.50;38.00;;;;;;5095207;28;19922;-72
2020/12/28 11:27:44;;;;;;;;;;;25.60;37.90;;;;;;5090358;28;20031;-72
2020/12/28 11:30:09;;;;;;;;;;;25.60;37.90;;;;;;5074862;28;20378;-71
2020/12/28 11:32:35;;;;;;;;;;;25.60;37.80;;;;;;5081741;28;20396;-73
2020/12/28 11:35:00;;;;;;;;;;;25.40;38.80;;;;;;5089987;28;19962;-73
2020/12/28 11:37:26;;;;;;;;;;;25.40;39.70;;;;;;5095095;28;19943;-78
2020/12/28 11:39:51;;;;;;;;;;;25.40;40.90;;;;;;5093514;28;20366;-65
2020/12/28 11:42:18;;;;;;;;;;;25.40;40.80;;;;;;5094108;28;20014;-69
2020/12/28 11:44:43;;;;;;;;;;;25.40;41.70;;;;;;5074393;28;19912;-75
2020/12/28 11:47:09;;;;;;;;;;;25.40;41.30;;;;;;5082620;28;19912;-66
2020/12/28 11:49:35;;;;;;;;;;;25.40;41.20;;;;;;5074568;28;20040;-64
2020/12/28 11:52:00;;;;;;;;;;;25.50;41.70;;;;;;5074594;28;19909;-67
2020/12/28 11:54:25;;;;;;;;;;;25.70;41.60;;;;;;5092577;28;19927;-64
2020/12/28 11:56:51;;;;;;;;;;;25.70;41.40;;;;;;5092570;28;19923;-76
2020/12/28 11:59:16;;;;;;;;;;;25.80;41.80;;;;;;5077309;28;19912;-78
2020/12/28 12:01:48;;;;;;;;;;;25.90;41.50;;;;;;5092856;28;19967;-74
2020/12/28 12:04:14;;;;;;;;;;;25.90;41.80;;;;;;5092468;28;20397;-70
2020/12/28 12:06:39;;;;;;;;;;;25.90;41.70;;;;;;5094366;28;19908;-64
2020/12/28 12:09:12;;;;;;;;;;;25.90;41.90;;;;;;5085979;28;19978;-63
2020/12/28 12:11:42;;;;;;;;;;;25.80;42.00;;;;;;5094259;28;19916;-65
2020/12/28 12:14:07;;;;;;;;;;;25.90;42.10;;;;;;5082601;28;20378;-65
2020/12/28 12:16:33;;;;;;;;;;;25.80;42.20;;;;;;5092969;28;19908;-63
2020/12/28 12:18:58;;;;;;;;;;;25.90;42.50;;;;;;5093244;28;19916;-66
2020/12/28 12:21:23;;;;;;;;;;;25.90;42.30;;;;;;5094000;28;19908;-66
2020/12/28 12:23:49;;;;;;;;;;;25.90;42.80;;;;;;5080351;28;20349;-64
2020/12/28 12:26:17;;;;;;;;;;;25.70;43.00;;;;;;5075644;28;19908;-65
2020/12/28 12:28:43;;;;;;;;;;;25.90;42.70;;;;;;5091338;28;20366;-65
2020/12/28 12:31:09;;;;;;;;;;;26.00;43.20;;;;;;5088325;28;19919;-63
2020/12/28 12:33:34;;;;;;;;;;;26.00;43.60;;;;;;5073859;28;19947;-62
2020/12/28 12:35:59;;;;;;;;;;;26.00;43.50;;;;;;5092739;28;20331;-63
2020/12/28 12:38:25;;;;;;;;;;;26.00;43.30;;;;;;5088279;28;19917;-72
2020/12/28 12:40:50;;;;;;;;;;;26.10;43.00;;;;;;5073543;28;19947;-68
2020/12/28 12:43:16;;;;;;;;;;;26.20;43.00;;;;;;5068600;28;19973;-65
2020/12/28 12:45:41;;;;;;;;;;;26.20;43.00;;;;;;5053339;28;19987;-68
2020/12/28 12:48:07;;;;;;;;;;;26.20;42.70;;;;;;5057923;28;19939;-70
2020/12/28 12:50:32;;;;;;;;;;;26.30;42.70;;;;;;5053224;28;19959;-65
2020/12/28 12:52:58;;;;;;;;;;;26.30;42.70;;;;;;5065067;28;19912;-68
2020/12/28 12:55:23;;;;;;;;;;;26.30;42.50;;;;;;5093110;28;19908;-65
2020/12/28 12:57:48;;;;;;;;;;;26.30;42.50;;;;;;5082841;28;19944;-69
2020/12/28 13:00:18;;;;;;;;;;;26.40;42.50;;;;;;5093560;28;19908;-65
2020/12/28 13:02:43;;;;;;;;;;;26.40;42.40;;;;;;5083264;28;20002;-69
2020/12/28 13:05:09;;;;;;;;;;;26.40;42.30;;;;;;5079251;28;19950;-63
2020/12/28 13:07:38;;;;;;;;;;;26.40;42.30;;;;;;5072856;28;19931;-62
2020/12/28 13:10:06;;;;;;;;;;;26.40;42.40;;;;;;5090985;28;20320;-61
2020/12/28 13:12:32;;;;;;;;;;;26.30;42.40;;;;;;5090495;28;20003;-64
2020/12/28 13:14:57;;;;;;;;;;;26.30;42.30;;;;;;5077902;28;19956;-60
2020/12/28 13:17:23;;;;;;;;;;;26.20;42.50;;;;;;5092928;28;19932;-57
2020/12/28 13:19:48;;;;;;;;;;;26.30;42.30;;;;;;5093267;28;19908;-61
2020/12/28 13:22:14;;;;;;;;;;;26.30;42.30;;;;;;5092526;28;20373;-59
2020/12/28 13:24:39;;;;;;;;;;;26.30;42.20;;;;;;5073029;28;19912;-57
2020/12/28 13:27:05;;;;;;;;;;;26.40;42.10;;;;;;5072959;28;19924;-62
2020/12/28 13:29:31;;;;;;;;;;;26.40;42.00;;;;;;5085083;28;19912;-67
2020/12/28 13:31:56;;;;;;;;;;;26.40;42.00;;;;;;5093011;28;19908;-63
2020/12/28 13:34:22;;;;;;;;;;;26.40;41.90;;;;;;5078907;28;19908;-60
2020/12/28 13:36:47;;;;;;;;;;;26.40;41.90;;;;;;5092787;28;20440;-62
2020/12/28 13:39:13;;;;;;;;;;;26.40;41.90;;;;;;5080994;28;19919;-63
2020/12/28 13:41:38;;;;;;;;;;;26.50;41.80;;;;;;5077948;28;20316;-63
2020/12/28 13:44:04;;;;;;;;;;;26.40;42.10;;;;;;5086943;28;19916;-61
2020/12/28 13:46:29;;;;;;;;;;;26.20;42.40;;;;;;5096838;28;20277;-62
2020/12/28 13:48:54;;;;;;;;;;;26.30;42.30;;;;;;5097095;28;19961;-63
2020/12/28 13:51:20;;;;;;;;;;;26.30;42.10;;;;;;5096652;28;19939;-66
2020/12/28 13:53:46;;;;;;;;;;;26.30;41.80;;;;;;5083835;28;19939;-62
2020/12/28 13:56:15;;;;;;;;;;;26.40;41.80;;;;;;5081090;28;19957;-61
2020/12/28 13:58:41;;;;;;;;;;;26.40;41.80;;;;;;5084740;28;19961;-64
2020/12/28 14:01:15;;;;;;;;;;;26.40;41.70;;;;;;5076502;28;19912;-63
2020/12/28 14:03:42;;;;;;;;;;;26.40;41.70;;;;;;5087954;28;19916;-66
2020/12/28 14:06:11;;;;;;;;;;;26.40;41.60;;;;;;5094183;28;20035;-63
2020/12/28 14:08:40;;;;;;;;;;;26.50;41.70;;;;;;5089784;28;19909;-62